createdAt,value
2019-02-10T00:01:45.525Z,69.32
2019-02-10T00:04:16.472Z,68.92
2019-02-10T00:06:47.381Z,68.88
2019-02-10T00:09:18.389Z,68.81
2019-02-10T00:11:49.318Z,69.60
2019-02-10T00:14:20.362Z,69.33
2019-02-10T00:16:51.315Z,69.26
2019-02-10T00:19:22.504Z,69.14
2019-02-10T00:21:53.441Z,69.31
2019-02-10T00:24:24.352Z,69.64
2019-02-10T00:26:55.311Z,69.62
2019-02-10T00:29:26.235Z,69.84
2019-02-10T00:31:57.309Z,69.95
2019-02-10T00:34:28.311Z,69.89
2019-02-10T00:36:59.218Z,70.16
2019-02-10T00:39:30.478Z,70.18
2019-02-10T00:42:01.412Z,69.95
2019-02-10T00:44:32.312Z,69.83
2019-02-10T00:47:03.362Z,69.85
2019-02-10T00:49:34.277Z,69.96
2019-02-10T00:52:05.251Z,69.81
2019-02-10T00:54:36.134Z,69.90
2019-02-10T00:57:07.027Z,70.18
2019-02-10T00:59:37.977Z,70.52
2019-02-10T01:02:08.984Z,70.66
2019-02-10T01:04:39.931Z,70.63
2019-02-10T01:07:11.062Z,70.64
2019-02-10T01:09:42.022Z,70.62
2019-02-10T01:12:12.903Z,70.75
2019-02-10T01:14:43.803Z,70.94
2019-02-10T01:17:14.722Z,70.86
2019-02-10T01:19:45.921Z,71.05
2019-02-10T01:22:16.835Z,71.08
2019-02-10T01:24:47.770Z,71.32
2019-02-10T01:27:18.745Z,71.54
2019-02-10T01:29:49.722Z,71.26
2019-02-10T01:32:20.728Z,71.40
2019-02-10T01:34:51.672Z,71.74
2019-02-10T01:37:22.910Z,71.75
2019-02-10T01:39:54.341Z,71.77
2019-02-10T01:42:25.499Z,71.55
2019-02-10T01:44:56.434Z,71.45
2019-02-10T01:47:27.360Z,71.34
2019-02-10T01:49:58.889Z,71.04
2019-02-10T01:52:29.870Z,71.06
2019-02-10T01:55:01.098Z,71.11
2019-02-10T01:57:32.016Z,71.24
2019-02-10T02:00:03.130Z,71.41
2019-02-10T02:02:34.352Z,71.39
2019-02-10T02:05:06.892Z,71.82
2019-02-10T02:07:37.790Z,71.85
2019-02-10T02:10:11.917Z,72.11
2019-02-10T02:12:42.968Z,72.52
2019-02-10T02:15:15.552Z,72.80
2019-02-10T02:17:46.517Z,73.33
2019-02-10T02:20:17.500Z,74.02
2019-02-10T02:22:48.456Z,74.18
2019-02-10T02:25:19.394Z,74.58
2019-02-10T02:27:50.394Z,74.56
2019-02-10T02:30:21.323Z,74.74
2019-02-10T02:32:52.538Z,75.14
2019-02-10T02:35:23.734Z,75.07
2019-02-10T02:37:54.711Z,75.31
2019-02-10T02:40:25.724Z,75.44
2019-02-10T02:42:57.056Z,75.13
2019-02-10T02:45:28.318Z,75.04
2019-02-10T02:47:59.383Z,74.72
2019-02-10T02:50:30.299Z,74.86
2019-02-10T02:53:08.818Z,75.15
2019-02-10T02:55:39.709Z,75.00
2019-02-10T02:58:10.632Z,75.11
2019-02-10T03:00:41.632Z,74.82
2019-02-10T03:03:13.020Z,74.95
2019-02-10T03:05:43.965Z,74.25
2019-02-10T03:08:14.929Z,74.28
2019-02-10T03:10:45.819Z,74.20
2019-02-10T03:13:16.792Z,74.43
2019-02-10T03:15:47.773Z,74.42
2019-02-10T03:18:18.848Z,74.65
2019-02-10T03:20:50.018Z,74.78
2019-02-10T03:23:20.945Z,75.03
2019-02-10T03:25:51.902Z,75.00
2019-02-10T03:28:22.837Z,75.13
2019-02-10T03:30:53.805Z,74.97
2019-02-10T03:33:24.816Z,75.14
2019-02-10T03:35:56.038Z,75.08
2019-02-10T03:38:27.265Z,75.10
2019-02-10T03:40:58.187Z,74.88
2019-02-10T03:43:29.123Z,74.63
2019-02-10T03:46:00.031Z,74.74
2019-02-10T03:48:30.925Z,74.77
2019-02-10T03:51:01.849Z,74.81
2019-02-10T03:53:33.141Z,74.68
2019-02-10T03:56:04.085Z,74.73
2019-02-10T03:58:35.102Z,74.65
2019-02-10T04:01:06.011Z,74.34
2019-02-10T04:03:36.917Z,74.51
2019-02-10T04:06:07.853Z,74.58
2019-02-10T04:08:38.815Z,75.01
2019-02-10T04:11:09.759Z,74.74
2019-02-10T04:13:40.855Z,74.76
2019-02-10T04:16:11.771Z,74.95
2019-02-10T04:18:42.673Z,75.00
2019-02-10T04:21:13.636Z,75.12
2019-02-10T04:23:44.545Z,75.38
2019-02-10T04:26:15.430Z,75.26
2019-02-10T04:28:46.404Z,75.72
2019-02-10T04:31:17.287Z,75.95
2019-02-10T04:33:48.216Z,75.92
2019-02-10T04:36:19.198Z,76.09
2019-02-10T04:38:50.514Z,76.12
2019-02-10T04:41:21.711Z,76.38
2019-02-10T04:43:52.616Z,75.90
2019-02-10T04:46:23.573Z,76.22
2019-02-10T04:48:54.794Z,76.14
2019-02-10T04:51:25.784Z,76.48
2019-02-10T04:53:56.791Z,76.27
2019-02-10T04:56:27.685Z,76.18
2019-02-10T04:58:58.612Z,76.16
2019-02-10T05:01:29.609Z,76.33
2019-02-10T05:04:00.602Z,76.22
2019-02-10T05:06:31.512Z,76.45
2019-02-10T05:09:02.414Z,76.33
2019-02-10T05:11:33.706Z,76.02
2019-02-10T05:14:04.617Z,76.25
2019-02-10T05:16:35.504Z,76.85
2019-02-10T05:19:06.459Z,77.34
2019-02-10T05:21:37.370Z,77.76
2019-02-10T05:24:08.673Z,78.40
2019-02-10T05:26:39.556Z,79.48
2019-02-10T05:29:10.721Z,79.23
2019-02-10T05:31:41.644Z,79.63
2019-02-10T05:34:12.610Z,79.78
2019-02-10T05:36:43.557Z,80.24
2019-02-10T05:39:14.513Z,81.09
2019-02-10T05:41:45.407Z,81.89
2019-02-10T05:44:16.416Z,82.03
2019-02-10T05:46:47.333Z,82.34
2019-02-10T05:49:18.668Z,82.90
2019-02-10T05:51:49.553Z,82.85
2019-02-10T05:54:20.470Z,83.12
2019-02-10T05:56:51.407Z,83.29
2019-02-10T05:59:22.380Z,83.62
2019-02-10T06:02:32.578Z,83.56
2019-02-10T06:05:26.225Z,83.58
2019-02-10T06:07:57.255Z,83.45
2019-02-10T06:10:28.149Z,83.83
2019-02-10T06:12:59.055Z,83.84
2019-02-10T06:15:29.968Z,83.59
2019-02-10T06:18:00.853Z,84.06
2019-02-10T06:20:31.856Z,84.05
2019-02-10T06:23:02.753Z,84.07
2019-02-10T06:25:33.673Z,83.81
2019-02-10T06:28:04.601Z,83.54
2019-02-10T06:30:35.566Z,84.01
2019-02-10T06:33:06.551Z,84.22
2019-02-10T06:35:37.553Z,83.62
2019-02-10T06:38:08.454Z,84.17
2019-02-10T06:40:39.397Z,84.19
2019-02-10T06:43:10.425Z,84.04
2019-02-10T06:45:41.369Z,83.95
2019-02-10T06:48:12.535Z,84.26
2019-02-10T06:50:43.458Z,84.23
2019-02-10T06:53:14.439Z,84.20
2019-02-10T06:55:45.658Z,84.37
2019-02-10T06:58:16.668Z,84.36
2019-02-10T07:00:57.826Z,84.71
2019-02-10T07:03:58.588Z,84.77
2019-02-10T07:06:29.904Z,84.73
2019-02-10T07:09:00.880Z,85.55
2019-02-10T07:11:31.889Z,85.17
2019-02-10T07:14:04.394Z,85.49
2019-02-10T07:17:29.937Z,85.89
2019-02-10T07:20:42.416Z,86.59
2019-02-10T07:24:04.380Z,86.95
2019-02-10T07:26:58.852Z,87.29
2019-02-10T07:30:34.743Z,87.32
2019-02-10T07:33:40.667Z,87.11
2019-02-10T07:37:07.712Z,86.92
2019-02-10T07:40:23.065Z,87.11
2019-02-10T07:43:38.201Z,87.92
2019-02-10T07:46:35.250Z,87.92
2019-02-10T07:49:39.193Z,88.16
2019-02-10T07:53:03.716Z,88.36
2019-02-10T07:56:22.973Z,89.04
2019-02-10T08:00:04.290Z,89.24
2019-02-10T08:03:32.746Z,89.53
2019-02-10T08:07:13.676Z,89.56
2019-02-10T08:10:10.528Z,89.96
2019-02-10T08:13:55.407Z,90.38
2019-02-10T08:17:23.604Z,90.87
2019-02-10T08:21:08.316Z,91.00
2019-02-10T08:24:23.202Z,91.14
2019-02-10T08:27:45.678Z,91.24
2019-02-10T08:30:59.876Z,91.29
2019-02-10T08:34:18.578Z,91.42
2019-02-10T08:37:50.889Z,91.15
2019-02-10T08:40:56.252Z,91.75
2019-02-10T08:43:58.222Z,92.40
2019-02-10T08:47:33.423Z,92.38
2019-02-10T08:50:34.609Z,92.71
2019-02-10T08:53:11.737Z,92.83
2019-02-10T08:55:42.661Z,92.93
2019-02-10T08:58:13.536Z,92.89
2019-02-10T09:00:44.507Z,92.61
2019-02-10T09:03:19.503Z,92.62
2019-02-10T09:05:48.704Z,92.22
2019-02-10T09:08:19.867Z,91.66
2019-02-10T09:10:50.822Z,91.50
2019-02-10T09:13:28.194Z,91.03
2019-02-10T09:15:59.178Z,90.58
2019-02-10T09:18:30.083Z,90.37
2019-02-10T09:21:01.261Z,89.64
2019-02-10T09:23:32.232Z,89.34
2019-02-10T09:26:03.200Z,89.79
2019-02-10T09:28:34.127Z,89.00
2019-02-10T09:31:07.616Z,88.94
2019-02-10T09:33:38.525Z,89.11
2019-02-10T09:36:11.371Z,88.67
2019-02-10T09:38:42.319Z,89.06
2019-02-10T09:41:13.215Z,88.99
2019-02-10T09:43:44.180Z,88.94
2019-02-10T09:46:15.106Z,89.04
2019-02-10T09:48:46.044Z,89.03
2019-02-10T09:51:17.249Z,88.97
2019-02-10T09:53:48.253Z,88.90
2019-02-10T09:56:19.138Z,88.80
2019-02-10T09:58:50.366Z,89.08
2019-02-10T10:01:21.426Z,89.34
2019-02-10T10:03:52.326Z,89.04
2019-02-10T10:06:23.234Z,89.39
2019-02-10T10:08:54.200Z,89.32
2019-02-10T10:11:25.169Z,89.18
2019-02-10T10:13:56.442Z,88.97
2019-02-10T10:16:27.532Z,89.03
2019-02-10T10:18:58.468Z,88.76
2019-02-10T10:21:29.384Z,88.48
2019-02-10T10:24:00.316Z,88.22
2019-02-10T10:26:31.226Z,88.13
2019-02-10T10:29:02.153Z,87.95
2019-02-10T10:31:33.136Z,87.65
2019-02-10T10:34:04.069Z,87.61
2019-02-10T10:36:35.011Z,87.34
2019-02-10T10:39:07.107Z,86.95
2019-02-10T10:41:38.042Z,86.14
2019-02-10T10:44:09.285Z,86.01
2019-02-10T10:46:42.023Z,86.19
2019-02-10T10:49:13.046Z,85.82
2019-02-10T10:51:43.920Z,85.66
2019-02-10T10:54:14.934Z,85.36
2019-02-10T10:56:46.189Z,85.83
2019-02-10T10:59:17.497Z,85.61
2019-02-10T11:01:48.829Z,85.85
2019-02-10T11:04:19.751Z,85.35
2019-02-10T11:06:50.647Z,85.34
2019-02-10T11:09:21.608Z,85.01
2019-02-10T11:11:52.491Z,85.07
2019-02-10T11:14:24.028Z,84.67
2019-02-10T11:16:54.978Z,84.63
2019-02-10T11:19:26.189Z,83.59
2019-02-10T11:21:59.688Z,83.28
2019-02-10T11:24:30.780Z,82.06
2019-02-10T11:27:01.744Z,81.47
2019-02-10T11:29:32.976Z,81.66
2019-02-10T11:32:06.141Z,80.78
2019-02-10T11:34:37.160Z,80.07
2019-02-10T11:37:09.597Z,80.28
2019-02-10T11:39:43.850Z,79.15
2019-02-10T11:42:13.221Z,79.42
2019-02-10T11:44:44.126Z,79.26
2019-02-10T11:47:15.045Z,78.99
2019-02-10T11:49:46.251Z,77.96
2019-02-10T11:52:17.241Z,78.46
2019-02-10T11:54:48.130Z,78.26
2019-02-10T11:57:19.158Z,77.96
2019-02-10T11:59:51.192Z,77.29
2019-02-10T12:02:22.799Z,77.30
2019-02-10T12:04:54.063Z,77.74
2019-02-10T12:07:25.000Z,77.10
2019-02-10T12:09:55.991Z,76.79
2019-02-10T12:12:27.098Z,76.70
2019-02-10T12:14:59.480Z,76.28
2019-02-10T12:17:30.400Z,76.48
2019-02-10T12:20:01.282Z,77.14
2019-02-10T12:22:34.556Z,76.64
2019-02-10T12:25:05.965Z,76.12
2019-02-10T12:27:36.850Z,76.70
2019-02-10T12:30:11.787Z,76.65
2019-02-10T12:32:42.809Z,76.64
2019-02-10T12:35:14.381Z,76.58
2019-02-10T12:37:45.648Z,76.61
2019-02-10T12:40:17.428Z,76.50
2019-02-10T12:42:49.178Z,75.82
2019-02-10T12:45:20.517Z,76.02
2019-02-10T12:47:52.133Z,76.56
2019-02-10T12:50:23.020Z,76.14
2019-02-10T12:52:56.255Z,75.86
2019-02-10T12:55:29.390Z,76.11
2019-02-10T12:58:00.680Z,76.18
2019-02-10T13:00:34.220Z,76.64
2019-02-10T13:03:05.226Z,76.77
2019-02-10T13:05:36.533Z,77.26
2019-02-10T13:08:07.507Z,77.46
2019-02-10T13:10:38.802Z,78.00
2019-02-10T13:13:09.732Z,78.44
2019-02-10T13:15:40.924Z,78.79
2019-02-10T13:18:11.847Z,78.46
2019-02-10T13:20:42.775Z,78.59
2019-02-10T13:23:14.345Z,78.69
2019-02-10T13:25:45.371Z,78.72
2019-02-10T13:28:16.301Z,78.52
2019-02-10T13:30:47.509Z,78.55
2019-02-10T13:33:18.733Z,78.78
2019-02-10T13:35:49.697Z,79.16
2019-02-10T13:38:21.100Z,79.68
2019-02-10T13:40:52.265Z,80.34
2019-02-10T13:43:23.195Z,80.25
2019-02-10T13:45:54.201Z,80.70
2019-02-10T13:48:25.086Z,80.87
2019-02-10T13:50:56.283Z,81.41
2019-02-10T13:53:27.315Z,81.77
2019-02-10T13:55:58.222Z,81.88
2019-02-10T13:58:36.160Z,82.19
2019-02-10T14:01:07.106Z,82.38
2019-02-10T14:03:38.356Z,81.84
2019-02-10T14:06:09.392Z,81.69
2019-02-10T14:08:40.866Z,81.42
2019-02-10T14:11:11.797Z,81.11
2019-02-10T14:13:43.277Z,80.78
2019-02-10T14:16:14.473Z,80.89
2019-02-10T14:18:46.403Z,80.78
2019-02-10T14:21:17.539Z,80.70
2019-02-10T14:23:51.834Z,80.83
2019-02-10T14:26:23.131Z,80.36
2019-02-10T14:28:56.334Z,80.12
2019-02-10T14:31:27.592Z,80.18
2019-02-10T14:33:58.751Z,79.68
2019-02-10T14:36:29.672Z,79.79
2019-02-10T14:39:00.628Z,79.61
2019-02-10T14:41:31.505Z,79.25
2019-02-10T14:44:02.413Z,79.17
2019-02-10T14:46:33.451Z,78.70
2019-02-10T14:49:04.441Z,78.64
2019-02-10T14:51:35.398Z,78.80
2019-02-10T14:54:08.888Z,78.86
2019-02-10T14:56:39.848Z,79.07
2019-02-10T14:59:10.788Z,78.76
2019-02-10T15:01:41.765Z,79.13
2019-02-10T15:04:12.709Z,78.63
2019-02-10T15:06:43.631Z,78.44
2019-02-10T15:09:14.892Z,78.44
2019-02-10T15:11:46.135Z,78.61
2019-02-10T15:14:18.570Z,78.27
2019-02-10T15:16:49.526Z,77.96
2019-02-10T15:19:20.477Z,77.99
2019-02-10T15:21:51.739Z,78.15
2019-02-10T15:24:22.638Z,78.13
2019-02-10T15:26:53.546Z,78.24
2019-02-10T15:29:24.515Z,78.10
2019-02-10T15:31:55.400Z,78.28
2019-02-10T15:34:26.280Z,78.32
2019-02-10T15:36:58.360Z,79.02
2019-02-10T15:39:30.694Z,78.72
2019-02-10T15:42:09.248Z,78.87
2019-02-10T15:44:35.071Z,79.65
2019-02-10T15:47:05.996Z,79.59
2019-02-10T15:49:37.338Z,80.02
2019-02-10T15:52:08.258Z,80.97
2019-02-10T15:54:39.232Z,81.46
2019-02-10T15:57:10.912Z,82.04
2019-02-10T15:59:42.170Z,81.79
2019-02-10T16:02:13.405Z,82.16
2019-02-10T16:04:44.702Z,81.61
2019-02-10T16:07:15.606Z,81.41
2019-02-10T16:09:46.504Z,80.70
2019-02-10T16:12:18.432Z,79.47
2019-02-10T16:14:50.200Z,79.22
2019-02-10T16:17:21.186Z,77.87
2019-02-10T16:19:53.640Z,76.98
2019-02-10T16:22:24.899Z,76.58
2019-02-10T16:24:56.171Z,76.80
2019-02-10T16:27:27.484Z,77.01
2019-02-10T16:29:59.949Z,77.17
2019-02-10T16:32:30.991Z,77.09
2019-02-10T16:35:04.586Z,77.31
2019-02-10T16:37:39.196Z,76.87
2019-02-10T16:40:13.752Z,77.25
2019-02-10T16:42:44.849Z,77.27
2019-02-10T16:45:16.012Z,77.58
2019-02-10T16:47:46.968Z,77.30
2019-02-10T16:50:18.817Z,77.59
2019-02-10T16:52:50.086Z,77.73
2019-02-10T16:55:21.595Z,76.66
2019-02-10T16:57:54.553Z,76.23
2019-02-10T17:00:27.462Z,76.82
2019-02-10T17:02:58.389Z,76.54
2019-02-10T17:05:29.311Z,76.27
2019-02-10T17:08:00.280Z,76.11
2019-02-10T17:10:31.572Z,76.48
2019-02-10T17:13:02.565Z,76.92
2019-02-10T17:15:34.764Z,76.65
2019-02-10T17:18:05.706Z,77.53
2019-02-10T17:20:37.350Z,77.78
2019-02-10T17:23:08.615Z,78.50
2019-02-10T17:25:39.592Z,78.69
2019-02-10T17:28:11.267Z,79.09
2019-02-10T17:30:42.172Z,78.92
2019-02-10T17:33:13.152Z,79.60
2019-02-10T17:35:44.118Z,80.05
2019-02-10T17:38:15.183Z,79.54
2019-02-10T17:40:52.893Z,79.23
2019-02-10T17:43:28.162Z,79.11
2019-02-10T17:45:59.770Z,79.04
2019-02-10T17:48:30.834Z,79.56
2019-02-10T17:51:02.332Z,79.61
2019-02-10T17:53:35.053Z,79.46
2019-02-10T17:56:06.307Z,79.61
2019-02-10T17:58:37.251Z,79.20
2019-02-10T18:01:12.715Z,79.15
2019-02-10T18:03:47.350Z,79.01
2019-02-10T18:06:18.641Z,78.89
2019-02-10T18:08:51.338Z,78.55
2019-02-10T18:11:22.251Z,79.06
2019-02-10T18:13:53.224Z,79.63
2019-02-10T18:17:00.688Z,80.46
2019-02-10T18:19:42.212Z,82.17
2019-02-10T18:22:34.726Z,84.54
2019-02-10T18:25:23.327Z,85.35
2019-02-10T18:28:08.794Z,85.32
2019-02-10T18:31:01.754Z,85.34
2019-02-10T18:33:45.359Z,85.79
2019-02-10T18:36:27.254Z,86.42
2019-02-10T18:39:05.172Z,86.43
2019-02-10T18:41:53.312Z,85.58
2019-02-10T18:44:43.988Z,86.49
2019-02-10T18:47:52.960Z,86.51
2019-02-10T18:50:34.695Z,86.98
2019-02-10T18:53:24.705Z,87.09
2019-02-10T18:56:17.550Z,87.28
2019-02-10T18:59:10.408Z,87.58
2019-02-10T19:02:03.235Z,87.47
2019-02-10T19:05:04.893Z,87.54
2019-02-10T19:07:54.961Z,88.04
2019-02-10T19:10:58.446Z,88.05
2019-02-10T19:13:53.848Z,88.00
2019-02-10T19:16:44.332Z,88.51
2019-02-10T19:19:23.119Z,88.74
2019-02-10T19:22:27.716Z,88.13
2019-02-10T19:25:26.701Z,87.41
2019-02-10T19:28:29.202Z,87.09
2019-02-10T19:31:18.425Z,85.56
2019-02-10T19:34:10.118Z,85.61
2019-02-10T19:36:53.672Z,85.62
2019-02-10T19:39:50.720Z,85.73
2019-02-10T19:42:42.434Z,86.05
2019-02-10T19:45:41.273Z,86.19
2019-02-10T19:48:31.955Z,86.06
2019-02-10T19:51:24.805Z,86.24
2019-02-10T19:54:13.039Z,86.08
2019-02-10T19:57:11.752Z,86.35
2019-02-10T20:00:00.374Z,86.22
2019-02-10T20:03:05.223Z,86.39
2019-02-10T20:05:57.565Z,86.22
2019-02-10T20:08:47.906Z,86.05
2019-02-10T20:11:37.654Z,86.13
2019-02-10T20:14:27.793Z,86.29
2019-02-10T20:17:26.349Z,85.99
2019-02-10T20:20:20.855Z,85.50
2019-02-10T20:23:24.296Z,83.74
2019-02-10T20:26:14.647Z,81.65
2019-02-10T20:29:16.901Z,80.34
2019-02-10T20:32:21.723Z,79.24
2019-02-10T20:35:01.027Z,80.05
2019-02-10T20:37:52.925Z,79.44
2019-02-10T20:40:42.881Z,79.00
2019-02-10T20:43:39.067Z,79.00
2019-02-10T20:46:27.818Z,78.83
2019-02-10T20:49:08.690Z,78.64
2019-02-10T20:51:51.691Z,79.02
2019-02-10T20:54:36.505Z,79.07
2019-02-10T20:57:44.744Z,78.83
2019-02-10T21:00:34.953Z,78.87
2019-02-10T21:03:29.878Z,78.98
2019-02-10T21:06:21.435Z,79.31
2019-02-10T21:09:07.782Z,79.61
2019-02-10T21:12:10.013Z,79.74
2019-02-10T21:15:04.912Z,79.83
2019-02-10T21:18:00.439Z,81.04
2019-02-10T21:20:44.583Z,80.45
2019-02-10T21:23:28.015Z,80.91
2019-02-10T21:26:10.345Z,81.68
2019-02-10T21:29:00.151Z,82.69
2019-02-10T21:31:50.855Z,82.78
2019-02-10T21:34:46.366Z,83.20
2019-02-10T21:37:29.065Z,83.56
2019-02-10T21:40:14.500Z,84.21
2019-02-10T21:43:10.257Z,84.61
2019-02-10T21:45:55.368Z,84.92
2019-02-10T21:48:35.347Z,85.26
2019-02-10T21:51:06.897Z,85.88
2019-02-10T21:53:37.897Z,85.63
2019-02-10T21:56:09.164Z,85.99
2019-02-10T21:58:40.431Z,85.85
2019-02-10T22:01:11.966Z,86.20
2019-02-10T22:03:42.941Z,86.63
2019-02-10T22:06:13.908Z,86.74
2019-02-10T22:08:44.834Z,86.61
2019-02-10T22:11:15.761Z,87.01
2019-02-10T22:13:46.688Z,86.96
2019-02-10T22:16:17.918Z,87.13
2019-02-10T22:18:48.857Z,87.73
2019-02-10T22:21:19.736Z,87.91
2019-02-10T22:23:50.666Z,88.37
2019-02-10T22:26:21.615Z,88.24
2019-02-10T22:28:52.562Z,88.65
2019-02-10T22:31:23.763Z,88.87
2019-02-10T22:33:54.629Z,88.90
2019-02-10T22:36:25.507Z,89.30
2019-02-10T22:38:56.427Z,89.38
2019-02-10T22:41:27.393Z,88.74
2019-02-10T22:43:58.645Z,88.98
2019-02-10T22:46:29.573Z,89.36
2019-02-10T22:49:00.469Z,89.44
2019-02-10T22:51:31.464Z,89.49
2019-02-10T22:54:02.455Z,89.43
2019-02-10T22:56:33.386Z,89.55
2019-02-10T22:59:04.286Z,89.48
2019-02-10T23:01:35.644Z,90.00
2019-02-10T23:04:06.608Z,89.91
2019-02-10T23:06:37.548Z,90.13
2019-02-10T23:09:14.499Z,90.57
2019-02-10T23:11:45.409Z,90.70
2019-02-10T23:14:16.377Z,90.89
2019-02-10T23:16:47.515Z,90.97
2019-02-10T23:19:19.971Z,90.86
2019-02-10T23:21:51.010Z,90.90
2019-02-10T23:24:21.908Z,91.11
2019-02-10T23:26:53.185Z,91.00
2019-02-10T23:29:24.145Z,90.94
2019-02-10T23:31:55.031Z,90.93
2019-02-10T23:34:26.050Z,90.79
2019-02-10T23:36:57.129Z,90.73
2019-02-10T23:39:28.040Z,90.70
2019-02-10T23:41:58.958Z,90.42
2019-02-10T23:44:29.881Z,90.51
2019-02-10T23:47:00.865Z,90.64
2019-02-10T23:49:31.760Z,90.93
2019-02-10T23:52:03.029Z,91.01
2019-02-10T23:54:33.983Z,91.10
2019-02-10T23:57:04.868Z,90.88
2019-02-10T23:59:36.116Z,90.80
